x

Cape Edgecumbe - 25nm Ssw Of Cape Edgecumbe, Ak (46084) Weather Station

12:50pm - Sun 5th Jul 2015 All times are AKDT. -8 hours from GMT.

  • Wind
    18mph, 20mph gusts
  • Sea Temp 57°f
  • Air Temp 57°f
  • Sea Pressure 1022.8mb
  • Cape Edgecumbe - 25nm Ssw Of Cape Edgecumbe, Ak
  • Cape Edgecumbe - 25nm Ssw Of Cape Edgecumbe, Ak

More Historic Weather Station data

Upgrade to MSW Pro to gain access to the past 30 days of data for over 8000 Wavebouys and Weather Stations around the globe.

Join Pro

Comparision Forecast

View Surf forecast
   
Sun 07/05 12:50pm  -   -   -  18 20 mph 1022.8mb 57f 57f
11:50am 3.5ft 9s 5s 16 18 mph 1023mb 57f 57f
10:50am 3.5ft 10s 5s 16 18 mph 1023.2mb 57f 57f
9:50am  -   -   -  13 18 mph 1023.1mb 57f 57f
8:50am  -   -   -  13
mph
1023.2mb 57f 57f
7:50am 3.5ft 9s 6s 13 16 mph 1023.2mb 57f 57f
6:50am  -   -   -  11 13 mph 1023.1mb 57f 57f
5:50am 3.5ft 10s 7s 11 13 mph 1022.9mb 57f 57f
4:50am  -   -   -  11
mph
1022.7mb 58f 56f
3:50am  -   -   -   -  mph 1022.9mb 57f 56f
2:50am  -   -   -  11 16 mph 1023.3mb 58f 57f
1:50am 3.5ft 8s 6s 11 13 mph 1023.6mb 57f 56f
12:50am  -   -   -  9
mph
1023.9mb 57f 56f
Sat 07/04 11:50pm  -   -   -  9
mph
1024mb 57f 56f
10:50pm 3.5ft 9s 7s 9
mph
1024.3mb 58f 56f
9:50pm 3.5ft 10s 7s 7 9 mph 1024.5mb 58f 56f
8:50pm 3ft 8s 7s 9
mph
1024.6mb 58f 56f
7:50pm 3ft 9s 7s 7 9 mph 1024.6mb 58f 57f
6:50pm 2.5ft 9s 7s 7 9 mph 1024.6mb 58f 57f
5:50pm 3ft 9s 7s 9
mph
1024.9mb 58f 57f
4:50pm 2.5ft 9s 7s 7
mph
1025mb 58f 57f
3:50pm 2.5ft 9s 7s 7 9 mph 1025.3mb 59f 57f
2:50pm 2.5ft 10s 6s 4 7 mph 1025.3mb 59f 56f
1:50pm 2.5ft 6s 6s 4 7 mph 1025.6mb 59f 56f
12:50pm 2.5ft 14s 6s 4 7 mph 1025.6mb 58f 56f
11:50am 2.5ft 6s 6s 2
mph
1025.6mb 58f 56f
10:50am 2.5ft 14s 5s 2 4 mph 1025.7mb 57f 55f
9:50am 2.5ft 6s 5s 4 7 mph 1025.9mb 57f 55f
8:50am 3ft 6s 5s 7 9 mph 1025.8mb 57f 55f
7:50am 2.5ft 6s 5s 7 9 mph 1025.7mb 57f 55f
6:50am 2.5ft 7s 5s 9 11 mph 1025.4mb 57f 55f
5:50am  -   -   -  9 11 mph 1025mb 57f 55f
4:50am 3ft 6s 5s 11 13 mph 1025mb 57f 55f
3:50am 3ft 7s 6s 11 13 mph 1024.9mb 57f 55f
2:50am 3.5ft 7s 6s 11
mph
1025.1mb 57f 55f
1:50am 3.5ft 7s 6s 11
mph
1025mb 57f 55f
12:50am 3.5ft 7s 6s 11 13 mph 1025.2mb 57f 55f
Fri 07/03 11:50pm 3.5ft 7s 6s 9 11 mph 1025.3mb 57f 55f
10:50pm 3.5ft 7s 6s 9 11 mph 1025.4mb 57f 55f
9:50pm 3.5ft 7s 6s 9 11 mph 1025.7mb 57f 55f
8:50pm 3.5ft 7s 5s 9 11 mph 1025.7mb 57f 55f
7:50pm 4.5ft 7s 6s 9 11 mph 1026mb 58f 55f
6:50pm 3.5ft 7s 6s 7 9 mph 1026mb 58f 55f
5:50pm 4ft 7s 6s 7 9 mph 1026mb 58f 55f
4:50pm 4.5ft 7s 6s 9 11 mph 1026.1mb 58f 55f
3:50pm 4.5ft 7s 6s 7
mph
1026.3mb 58f 56f
2:50pm 4.5ft 7s 6s 4 7 mph 1026.4mb 58f 55f
1:50pm 4.5ft 8s 6s 7
mph
1026.4mb 57f 55f
12:50pm 4.5ft 8s 6s 4 7 mph 1026.5mb 57f 55f
11:50am 5ft 8s 6s 7
mph
1026.4mb 57f 55f
10:50am 4.5ft 8s 6s 9 11 mph 1026.6mb 56f 55f
9:50am 4.5ft 6s 6s 9 11 mph 1026.6mb 56f 55f
8:50am  -   -   -  11 13 mph 1026.5mb 56f 55f
7:50am 4.5ft 8s 6s 9 11 mph 1026.3mb 56f 55f
6:50am 4.5ft 7s 5s 7 9 mph 1026.2mb 56f 55f
5:50am 5ft 8s 6s 7 9 mph 1026mb 56f 55f
4:50am  -   -   -  7
mph
- - 55f
3:50am 6ft 7s 6s 9 13 mph 1025.6mb 56f 55f
2:50am 6ft 7s 6s 9
mph
1025.5mb 56f 55f
1:50am 6ft 7s 6s 9
mph
1025.5mb 56f 55f
12:50am  -   -   -  9
mph
1025.4mb 56f 55f
Thu 07/02 11:50pm  -   -   -  9
mph
1025.5mb 56f 55f
10:50pm 6.5ft 7s 6s 7 11 mph 1025.4mb 56f 55f
9:50pm  -   -   -  11 16 mph 1025.2mb 56f 55f
8:50pm 7ft 9s 7s 11 13 mph 1025mb 56f 55f
7:50pm 7.5ft 9s 6s 9 13 mph 1025mb 56f 55f
6:50pm  -   -   -  11 13 mph 1024.8mb 56f 56f
5:50pm  -   -   -  13 16 mph 1024.6mb 56f 56f
4:50pm 9ft 9s 7s 16 18 mph 1024.2mb 56f 56f
3:50pm 9ft 9s 6s 13 16 mph 1023.7mb 56f 56f
2:50pm 9ft 9s 6s 16 18 mph 1023.3mb 56f 56f
1:50pm 10.5ft 9s 6s 18 20 mph 1022.6mb 56f 56f
12:50pm 11ft 9s 7s 22 25 mph 1021.8mb 56f 56f
11:50am  -   -   -  22 27 mph 1021mb 56f 55f
10:50am  -   -   -  22 27 mph 1020.2mb 56f 55f
9:50am 11.5ft 10s 7s 22 27 mph 1019.4mb 56f 55f
8:50am  -   -   -  25 29 mph 1018.7mb 56f 55f
7:50am 12ft 11s 7s 22 29 mph 1017.8mb 56f 55f
6:50am  -   -   -  25 31 mph 1016.8mb 56f 55f
5:50am  -   -   -  25 31 mph 1016mb 56f 55f
4:50am  -   -   -  25 31 mph 1015.4mb 56f 55f
3:50am 13ft 11s 7s 27 36 mph 1014.6mb 56f 54f
2:50am  -   -   -  29 36 mph 1013.9mb 56f 55f
1:50am 11.5ft 8s 6s 29 36 mph 1013.3mb 56f 56f
12:50am 10.5ft 8s 6s 27 36 mph 1012.7mb 56f 56f
Wed 07/01 11:50pm  -   -   -  31 38 mph 1011.9mb 56f 56f
10:50pm 11ft 7s 6s 29 36 mph 1011.7mb 56f 56f
9:50pm  -   -   -  34 40 mph 1011.1mb 56f 55f